Time;durP1;ratioP1;P1;durP2;ratioP2;P2;SDS_P1;SDS_P2;PMS_P1;PMS_P2;Temp;Humidity;BMP_temperature;BMP_pressure;BME280_temperature;BME280_humidity;BME280_pressure;Samples;Min_cycle;Max_cycle;Signal;HPM_P1;HPM_P2
2020/07/07 00:00:03;;;;;;;4.8;2.65;;;;;;;11.31;59.10254;95678.52;;;;
2020/07/07 00:01:17;;;;;;;4.95;2.65;;;;;;;11.1;59.86035;95668.24;;;;
2020/07/07 00:02:18;;;;;;;4.95;2.65;;;;;;;11.1;59.86035;95668.24;;;;
2020/07/07 00:03:18;;;;;;;4.95;2.65;;;;;;;11.1;59.86035;95668.24;;;;
2020/07/07 00:04:19;;;;;;;4.95;2.65;;;;;;;11.1;59.86035;95668.24;;;;
2020/07/07 00:05:19;;;;;;;4.95;2.65;;;;;;;11.1;59.86035;95668.24;;;;
2020/07/07 00:06:20;;;;;;;4.95;2.65;;;;;;;11.1;59.86035;95668.24;;;;
2020/07/07 00:07:21;;;;;;;4.95;2.65;;;;;;;11.1;59.86035;95668.24;;;;
2020/07/07 00:08:21;;;;;;;4.95;2.65;;;;;;;11.1;59.86035;95668.24;;;;
2020/07/07 00:09:22;;;;;;;4.95;2.65;;;;;;;11.1;59.86035;95668.24;;;;
2020/07/07 00:10:22;;;;;;;4.95;2.65;;;;;;;11.1;59.86035;95668.24;;;;
2020/07/07 00:11:23;;;;;;;4.95;2.7;;;;;;;10.9;60.52148;95663.08;;;;
2020/07/07 00:12:23;;;;;;;4.95;2.7;;;;;;;10.9;60.52148;95663.08;;;;
2020/07/07 00:13:23;;;;;;;4.95;2.7;;;;;;;10.9;60.52148;95663.08;;;;
2020/07/07 00:14:24;;;;;;;4.95;2.7;;;;;;;10.9;60.52148;95663.08;;;;
2020/07/07 00:15:24;;;;;;;4.95;2.7;;;;;;;10.9;60.52148;95663.08;;;;
2020/07/07 00:16:25;;;;;;;4.95;2.7;;;;;;;10.9;60.52148;95663.08;;;;
2020/07/07 00:17:26;;;;;;;4.95;2.7;;;;;;;10.9;60.52148;95663.08;;;;
2020/07/07 00:18:26;;;;;;;4.95;2.7;;;;;;;10.9;60.52148;95663.08;;;;
2020/07/07 00:19:27;;;;;;;4.95;2.7;;;;;;;10.9;60.52148;95663.08;;;;
2020/07/07 00:20:27;;;;;;;4.95;2.7;;;;;;;10.9;60.52148;95663.08;;;;
2020/07/07 00:21:28;;;;;;;4.95;2.7;;;;;;;10.9;60.52148;95663.08;;;;
2020/07/07 00:22:30;;;;;;;9.400001;2.85;;;;;;;10.63;61.2998;95672.6;;;;
2020/07/07 00:23:31;;;;;;;9.400001;2.85;;;;;;;10.63;61.2998;95672.6;;;;
2020/07/07 00:24:32;;;;;;;9.400001;2.85;;;;;;;10.63;61.2998;95672.6;;;;
2020/07/07 00:25:32;;;;;;;9.400001;2.85;;;;;;;10.63;61.2998;95672.6;;;;
2020/07/07 00:26:33;;;;;;;9.400001;2.85;;;;;;;10.63;61.2998;95672.6;;;;
2020/07/07 00:27:34;;;;;;;9.400001;2.85;;;;;;;10.63;61.2998;95672.6;;;;
2020/07/07 00:28:36;;;;;;;9.400001;2.85;;;;;;;10.63;61.2998;95672.6;;;;
2020/07/07 00:29:37;;;;;;;9.400001;2.85;;;;;;;10.63;61.2998;95672.6;;;;
2020/07/07 00:30:38;;;;;;;9.400001;2.85;;;;;;;10.63;61.2998;95672.6;;;;
2020/07/07 00:31:39;;;;;;;9.400001;2.85;;;;;;;10.63;61.2998;95672.6;;;;
2020/07/07 00:32:40;;;;;;;5.599999;2.8;;;;;;;10.43;62.20605;95664.33;;;;
2020/07/07 00:33:43;;;;;;;5.599999;2.8;;;;;;;10.43;62.20605;95664.33;;;;
2020/07/07 00:34:43;;;;;;;5.599999;2.8;;;;;;;10.43;62.20605;95664.33;;;;
2020/07/07 00:35:47;;;;;;;5.599999;2.8;;;;;;;10.43;62.20605;95664.33;;;;
2020/07/07 00:36:47;;;;;;;5.599999;2.8;;;;;;;10.43;62.20605;95664.33;;;;
2020/07/07 00:37:47;;;;;;;5.599999;2.8;;;;;;;10.43;62.20605;95664.33;;;;
2020/07/07 00:38:49;;;;;;;5.599999;2.8;;;;;;;10.43;62.20605;95664.33;;;;
2020/07/07 00:39:49;;;;;;;5.599999;2.8;;;;;;;10.43;62.20605;95664.33;;;;
2020/07/07 00:40:50;;;;;;;5.599999;2.8;;;;;;;10.43;62.20605;95664.33;;;;
2020/07/07 00:41:52;;;;;;;5.599999;2.8;;;;;;;10.43;62.20605;95664.33;;;;
2020/07/07 00:42:56;;;;;;;5.599999;2.8;;;;;;;10.43;62.20605;95664.33;;;;
2020/07/07 00:43:57;;;;;;;5.95;2.65;;;;;;;10.2;62.85938;95663.76;;;;
2020/07/07 00:44:58;;;;;;;5.95;2.65;;;;;;;10.2;62.85938;95663.76;;;;
2020/07/07 00:45:58;;;;;;;5.95;2.65;;;;;;;10.2;62.85938;95663.76;;;;
2020/07/07 00:46:59;;;;;;;5.95;2.65;;;;;;;10.2;62.85938;95663.76;;;;
2020/07/07 00:48:00;;;;;;;5.95;2.65;;;;;;;10.2;62.85938;95663.76;;;;
2020/07/07 00:49:00;;;;;;;5.95;2.65;;;;;;;10.2;62.85938;95663.76;;;;
2020/07/07 00:50:00;;;;;;;5.95;2.65;;;;;;;10.2;62.85938;95663.76;;;;
2020/07/07 00:51:01;;;;;;;5.95;2.65;;;;;;;10.2;62.85938;95663.76;;;;
2020/07/07 00:52:03;;;;;;;5.95;2.65;;;;;;;10.2;62.85938;95663.76;;;;
2020/07/07 00:53:04;;;;;;;5.95;2.65;;;;;;;10.2;62.85938;95663.76;;;;
2020/07/07 00:54:05;;;;;;;5.5;3.05;;;;;;;10.04;63.41504;95659.3;;;;
2020/07/07 00:55:05;;;;;;;5.5;3.05;;;;;;;10.04;63.41504;95659.3;;;;
2020/07/07 00:56:06;;;;;;;5.5;3.05;;;;;;;10.04;63.41504;95659.3;;;;
2020/07/07 00:57:06;;;;;;;5.5;3.05;;;;;;;10.04;63.41504;95659.3;;;;
2020/07/07 00:58:07;;;;;;;5.5;3.05;;;;;;;10.04;63.41504;95659.3;;;;
2020/07/07 00:59:07;;;;;;;5.5;3.05;;;;;;;10.04;63.41504;95659.3;;;;
2020/07/07 01:00:08;;;;;;;5.5;3.05;;;;;;;10.04;63.41504;95659.3;;;;
2020/07/07 01:01:11;;;;;;;5.5;3.05;;;;;;;10.04;63.41504;95659.3;;;;
2020/07/07 01:02:12;;;;;;;5.5;3.05;;;;;;;10.04;63.41504;95659.3;;;;
2020/07/07 01:03:12;;;;;;;5.5;3.05;;;;;;;10.04;63.41504;95659.3;;;;
2020/07/07 01:04:15;;;;;;;4.75;3;;;;;;;9.83;64.17773;95661.08;;;;
2020/07/07 01:05:18;;;;;;;4.75;3;;;;;;;9.83;64.17773;95661.08;;;;
2020/07/07 01:06:19;;;;;;;4.75;3;;;;;;;9.83;64.17773;95661.08;;;;
2020/07/07 01:07:20;;;;;;;4.75;3;;;;;;;9.83;64.17773;95661.08;;;;
2020/07/07 01:08:21;;;;;;;4.75;3;;;;;;;9.83;64.17773;95661.08;;;;
2020/07/07 01:09:22;;;;;;;4.75;3;;;;;;;9.83;64.17773;95661.08;;;;
2020/07/07 01:10:24;;;;;;;4.75;3;;;;;;;9.83;64.17773;95661.08;;;;
2020/07/07 01:11:25;;;;;;;4.75;3;;;;;;;9.83;64.17773;95661.08;;;;
2020/07/07 01:12:26;;;;;;;4.75;3;;;;;;;9.83;64.17773;95661.08;;;;
2020/07/07 01:13:28;;;;;;;4.75;3;;;;;;;9.83;64.17773;95661.08;;;;
2020/07/07 01:14:29;;;;;;;4.75;3;;;;;;;9.83;64.17773;95661.08;;;;
2020/07/07 01:15:31;;;;;;;5.45;2.900001;;;;;;;9.72;64.84668;95663.15;;;;
2020/07/07 01:16:31;;;;;;;5.45;2.900001;;;;;;;9.72;64.84668;95663.15;;;;
2020/07/07 01:17:32;;;;;;;5.45;2.900001;;;;;;;9.72;64.84668;95663.15;;;;
2020/07/07 01:18:33;;;;;;;5.45;2.900001;;;;;;;9.72;64.84668;95663.15;;;;
2020/07/07 01:19:34;;;;;;;5.45;2.900001;;;;;;;9.72;64.84668;95663.15;;;;
2020/07/07 01:20:36;;;;;;;5.45;2.900001;;;;;;;9.72;64.84668;95663.15;;;;
2020/07/07 01:21:42;;;;;;;5.45;2.900001;;;;;;;9.72;64.84668;95663.15;;;;
2020/07/07 01:22:49;;;;;;;5.45;2.900001;;;;;;;9.72;64.84668;95663.15;;;;
2020/07/07 01:23:56;;;;;;;5.45;2.900001;;;;;;;9.72;64.84668;95663.15;;;;
2020/07/07 01:25:04;;;;;;;5.45;2.900001;;;;;;;9.72;64.84668;95663.15;;;;
2020/07/07 01:26:07;;;;;;;5.849999;2.8;;;;;;;9.57;65.53027;95671.7;;;;
2020/07/07 01:27:11;;;;;;;5.849999;2.8;;;;;;;9.57;65.53027;95671.7;;;;
2020/07/07 01:28:14;;;;;;;5.849999;2.8;;;;;;;9.57;65.53027;95671.7;;;;
2020/07/07 01:29:18;;;;;;;5.849999;2.8;;;;;;;9.57;65.53027;95671.7;;;;
2020/07/07 01:30:20;;;;;;;5.849999;2.8;;;;;;;9.57;65.53027;95671.7;;;;
2020/07/07 01:31:24;;;;;;;5.849999;2.8;;;;;;;9.57;65.53027;95671.7;;;;
2020/07/07 01:32:30;;;;;;;5.849999;2.8;;;;;;;9.57;65.53027;95671.7;;;;
2020/07/07 01:33:31;;;;;;;5.849999;2.8;;;;;;;9.57;65.53027;95671.7;;;;
2020/07/07 01:34:32;;;;;;;5.849999;2.8;;;;;;;9.57;65.53027;95671.7;;;;
2020/07/07 01:35:34;;;;;;;5.849999;2.8;;;;;;;9.57;65.53027;95671.7;;;;
2020/07/07 01:36:35;;;;;;;4.100001;2.8;;;;;;;9.48;65.94531;95669.39;;;;
2020/07/07 01:37:38;;;;;;;4.100001;2.8;;;;;;;9.48;65.94531;95669.39;;;;
2020/07/07 01:39:01;;;;;;;4.100001;2.8;;;;;;;9.48;65.94531;95669.39;;;;
2020/07/07 01:40:09;;;;;;;4.100001;2.8;;;;;;;9.48;65.94531;95669.39;;;;
2020/07/07 01:41:14;;;;;;;4.100001;2.8;;;;;;;9.48;65.94531;95669.39;;;;
2020/07/07 01:42:20;;;;;;;4.100001;2.8;;;;;;;9.48;65.94531;95669.39;;;;
2020/07/07 01:43:21;;;;;;;4.100001;2.8;;;;;;;9.48;65.94531;95669.39;;;;
2020/07/07 01:44:37;;;;;;;4.100001;2.8;;;;;;;9.48;65.94531;95669.39;;;;
2020/07/07 01:45:42;;;;;;;4.100001;2.8;;;;;;;9.48;65.94531;95669.39;;;;
2020/07/07 01:47:02;;;;;;;6.95;2.8;;;;;;;9.49;66.2793;95663.36;;;;
2020/07/07 01:48:07;;;;;;;6.95;2.8;;;;;;;9.49;66.2793;95663.36;;;;
2020/07/07 01:49:16;;;;;;;6.95;2.8;;;;;;;9.49;66.2793;95663.36;;;;
2020/07/07 01:50:33;;;;;;;6.95;2.8;;;;;;;9.49;66.2793;95663.36;;;;
2020/07/07 01:51:34;;;;;;;6.95;2.8;;;;;;;9.49;66.2793;95663.36;;;;
2020/07/07 01:52:36;;;;;;;6.95;2.8;;;;;;;9.49;66.2793;95663.36;;;;
2020/07/07 01:53:39;;;;;;;6.95;2.8;;;;;;;9.49;66.2793;95663.36;;;;
2020/07/07 01:54:42;;;;;;;6.95;2.8;;;;;;;9.49;66.2793;95663.36;;;;
2020/07/07 01:55:46;;;;;;;6.95;2.8;;;;;;;9.49;66.2793;95663.36;;;;
2020/07/07 01:56:57;;;;;;;6.95;2.8;;;;;;;9.49;66.2793;95663.36;;;;
2020/07/07 01:58:06;;;;;;;5.3;3;;;;;;;9.83;66.45898;95674.98;;;;
2020/07/07 01:59:12;;;;;;;5.3;3;;;;;;;9.83;66.45898;95674.98;;;;
2020/07/07 02:00:18;;;;;;;5.3;3;;;;;;;9.83;66.45898;95674.98;;;;
2020/07/07 02:01:18;;;;;;;5.3;3;;;;;;;9.83;66.45898;95674.98;;;;
2020/07/07 02:02:32;;;;;;;5.3;3;;;;;;;9.83;66.45898;95674.98;;;;
2020/07/07 02:03:34;;;;;;;5.3;3;;;;;;;9.83;66.45898;95674.98;;;;
2020/07/07 02:04:36;;;;;;;5.3;3;;;;;;;9.83;66.45898;95674.98;;;;
2020/07/07 02:05:36;;;;;;;5.3;3;;;;;;;9.83;66.45898;95674.98;;;;
2020/07/07 02:06:37;;;;;;;5.3;3;;;;;;;9.83;66.45898;95674.98;;;;
2020/07/07 02:07:38;;;;;;;5.3;3;;;;;;;9.83;66.45898;95674.98;;;;
2020/07/07 02:08:41;;;;;;;7.1;3;;;;;;;10.08;66.44434;95671.82;;;;
2020/07/07 02:09:41;;;;;;;7.1;3;;;;;;;10.08;66.44434;95671.82;;;;
2020/07/07 02:10:42;;;;;;;7.1;3;;;;;;;10.08;66.44434;95671.82;;;;
2020/07/07 02:11:43;;;;;;;7.1;3;;;;;;;10.08;66.44434;95671.82;;;;
2020/07/07 02:12:45;;;;;;;7.1;3;;;;;;;10.08;66.44434;95671.82;;;;
2020/07/07 02:13:46;;;;;;;7.1;3;;;;;;;10.08;66.44434;95671.82;;;;
2020/07/07 02:14:48;;;;;;;7.1;3;;;;;;;10.08;66.44434;95671.82;;;;
2020/07/07 02:15:50;;;;;;;7.1;3;;;;;;;10.08;66.44434;95671.82;;;;
2020/07/07 02:16:55;;;;;;;7.1;3;;;;;;;10.08;66.44434;95671.82;;;;
2020/07/07 02:18:05;;;;;;;7.1;3;;;;;;;10.08;66.44434;95671.82;;;;
2020/07/07 02:19:08;;;;;;;6.149999;2.75;;;;;;;10.12;66.79297;95664.45;;;;
2020/07/07 02:20:09;;;;;;;6.149999;2.75;;;;;;;10.12;66.79297;95664.45;;;;
2020/07/07 02:21:10;;;;;;;6.149999;2.75;;;;;;;10.12;66.79297;95664.45;;;;
2020/07/07 02:22:19;;;;;;;6.149999;2.75;;;;;;;10.12;66.79297;95664.45;;;;
2020/07/07 02:24:06;;;;;;;6.149999;2.75;;;;;;;10.12;66.79297;95664.45;;;;
2020/07/07 02:25:16;;;;;;;6.149999;2.75;;;;;;;10.12;66.79297;95664.45;;;;
2020/07/07 02:26:24;;;;;;;6.149999;2.75;;;;;;;10.12;66.79297;95664.45;;;;
2020/07/07 02:27:35;;;;;;;6.149999;2.75;;;;;;;10.12;66.79297;95664.45;;;;
2020/07/07 02:28:47;;;;;;;6.149999;2.75;;;;;;;10.12;66.79297;95664.45;;;;
2020/07/07 02:30:03;;;;;;;5.8;2.750001;;;;;;;9.99;67.29785;95663.62;;;;
2020/07/07 02:31:09;;;;;;;5.8;2.750001;;;;;;;9.99;67.29785;95663.62;;;;
2020/07/07 02:32:11;;;;;;;5.8;2.750001;;;;;;;9.99;67.29785;95663.62;;;;
2020/07/07 02:33:37;;;;;;;5.8;2.750001;;;;;;;9.99;67.29785;95663.62;;;;
2020/07/07 02:34:47;;;;;;;5.8;2.750001;;;;;;;9.99;67.29785;95663.62;;;;
2020/07/07 02:35:50;;;;;;;5.8;2.750001;;;;;;;9.99;67.29785;95663.62;;;;
2020/07/07 02:36:55;;;;;;;5.8;2.750001;;;;;;;9.99;67.29785;95663.62;;;;
2020/07/07 02:38:01;;;;;;;5.8;2.750001;;;;;;;9.99;67.29785;95663.62;;;;
2020/07/07 02:39:02;;;;;;;5.8;2.750001;;;;;;;9.99;67.29785;95663.62;;;;
2020/07/07 02:40:06;;;;;;;5.6;2.8;;;;;;;9.93;67.75977;95670.43;;;;
2020/07/07 02:41:16;;;;;;;5.6;2.8;;;;;;;9.93;67.75977;95670.43;;;;
2020/07/07 02:42:18;;;;;;;5.6;2.8;;;;;;;9.93;67.75977;95670.43;;;;
2020/07/07 02:43:20;;;;;;;5.6;2.8;;;;;;;9.93;67.75977;95670.43;;;;
2020/07/07 02:44:36;;;;;;;5.6;2.8;;;;;;;9.93;67.75977;95670.43;;;;
2020/07/07 02:45:44;;;;;;;5.6;2.8;;;;;;;9.93;67.75977;95670.43;;;;
2020/07/07 02:46:57;;;;;;;5.6;2.8;;;;;;;9.93;67.75977;95670.43;;;;
2020/07/07 02:48:05;;;;;;;5.6;2.8;;;;;;;9.93;67.75977;95670.43;;;;
2020/07/07 02:49:06;;;;;;;5.6;2.8;;;;;;;9.93;67.75977;95670.43;;;;
2020/07/07 02:50:08;;;;;;;5.6;2.8;;;;;;;9.93;67.75977;95670.43;;;;
2020/07/07 02:51:16;;;;;;;6.85;3.05;;;;;;;9.75;68.33105;95664.46;;;;
2020/07/07 02:52:23;;;;;;;6.85;3.05;;;;;;;9.75;68.33105;95664.46;;;;
2020/07/07 02:53:33;;;;;;;6.85;3.05;;;;;;;9.75;68.33105;95664.46;;;;
2020/07/07 02:54:38;;;;;;;6.85;3.05;;;;;;;9.75;68.33105;95664.46;;;;
2020/07/07 02:56:11;;;;;;;6.85;3.05;;;;;;;9.75;68.33105;95664.46;;;;
2020/07/07 02:57:14;;;;;;;6.85;3.05;;;;;;;9.75;68.33105;95664.46;;;;
2020/07/07 02:58:14;;;;;;;6.85;3.05;;;;;;;9.75;68.33105;95664.46;;;;
2020/07/07 02:59:17;;;;;;;6.85;3.05;;;;;;;9.75;68.33105;95664.46;;;;
2020/07/07 03:00:28;;;;;;;6.85;3.05;;;;;;;9.75;68.33105;95664.46;;;;
2020/07/07 03:01:31;;;;;;;6.95;3;;;;;;;9.89;68.68457;95679.08;;;;
2020/07/07 03:02:40;;;;;;;6.95;3;;;;;;;9.89;68.68457;95679.08;;;;
2020/07/07 03:03:43;;;;;;;6.95;3;;;;;;;9.89;68.68457;95679.08;;;;
2020/07/07 03:04:49;;;;;;;6.95;3;;;;;;;9.89;68.68457;95679.08;;;;
2020/07/07 03:05:54;;;;;;;6.95;3;;;;;;;9.89;68.68457;95679.08;;;;
2020/07/07 03:06:56;;;;;;;6.95;3;;;;;;;9.89;68.68457;95679.08;;;;
2020/07/07 03:08:09;;;;;;;6.95;3;;;;;;;9.89;68.68457;95679.08;;;;
2020/07/07 03:09:19;;;;;;;6.95;3;;;;;;;9.89;68.68457;95679.08;;;;
2020/07/07 03:10:21;;;;;;;6.95;3;;;;;;;9.89;68.68457;95679.08;;;;
2020/07/07 03:11:31;;;;;;;6.249999;3.05;;;;;;;10.13;68.9043;95678.23;;;;
2020/07/07 03:12:34;;;;;;;6.249999;3.05;;;;;;;10.13;68.9043;95678.23;;;;
2020/07/07 03:13:39;;;;;;;6.249999;3.05;;;;;;;10.13;68.9043;95678.23;;;;
2020/07/07 03:14:39;;;;;;;6.249999;3.05;;;;;;;10.13;68.9043;95678.23;;;;
2020/07/07 03:16:03;;;;;;;6.249999;3.05;;;;;;;10.13;68.9043;95678.23;;;;
2020/07/07 03:17:09;;;;;;;6.249999;3.05;;;;;;;10.13;68.9043;95678.23;;;;
2020/07/07 03:18:22;;;;;;;6.249999;3.05;;;;;;;10.13;68.9043;95678.23;;;;
2020/07/07 03:19:24;;;;;;;6.249999;3.05;;;;;;;10.13;68.9043;95678.23;;;;
2020/07/07 03:20:30;;;;;;;6.249999;3.05;;;;;;;10.13;68.9043;95678.23;;;;
2020/07/07 03:21:33;;;;;;;6.249999;3.05;;;;;;;10.13;68.9043;95678.23;;;;
2020/07/07 03:22:37;;;;;;;6.250001;3.1;;;;;;;10.44;68.93164;95678.11;;;;
2020/07/07 03:24:00;;;;;;;6.250001;3.1;;;;;;;10.44;68.93164;95678.11;;;;
2020/07/07 03:25:19;;;;;;;6.250001;3.1;;;;;;;10.44;68.93164;95678.11;;;;
2020/07/07 03:26:39;;;;;;;6.250001;3.1;;;;;;;10.44;68.93164;95678.11;;;;
2020/07/07 03:28:07;;;;;;;6.250001;3.1;;;;;;;10.44;68.93164;95678.11;;;;
2020/07/07 03:29:51;;;;;;;6.250001;3.1;;;;;;;10.44;68.93164;95678.11;;;;
2020/07/07 03:31:01;;;;;;;6.250001;3.1;;;;;;;10.44;68.93164;95678.11;;;;
2020/07/07 03:32:05;;;;;;;6.250001;3.1;;;;;;;10.44;68.93164;95678.11;;;;
2020/07/07 03:33:07;;;;;;;6.7;2.8;;;;;;;10.64;69.02734;95694.07;;;;
2020/07/07 03:34:09;;;;;;;6.7;2.8;;;;;;;10.64;69.02734;95694.07;;;;
2020/07/07 03:35:09;;;;;;;6.7;2.8;;;;;;;10.64;69.02734;95694.07;;;;
2020/07/07 03:36:10;;;;;;;6.7;2.8;;;;;;;10.64;69.02734;95694.07;;;;
2020/07/07 03:37:12;;;;;;;6.7;2.8;;;;;;;10.64;69.02734;95694.07;;;;
2020/07/07 03:38:16;;;;;;;6.7;2.8;;;;;;;10.64;69.02734;95694.07;;;;
2020/07/07 03:39:18;;;;;;;6.7;2.8;;;;;;;10.64;69.02734;95694.07;;;;
2020/07/07 03:40:19;;;;;;;6.7;2.8;;;;;;;10.64;69.02734;95694.07;;;;
2020/07/07 03:41:21;;;;;;;6.7;2.8;;;;;;;10.64;69.02734;95694.07;;;;
2020/07/07 03:43:11;;;;;;;6.7;2.8;;;;;;;10.64;69.02734;95694.07;;;;
2020/07/07 03:44:15;;;;;;;5.55;2.9;;;;;;;10.86;69.09375;95700.66;;;;
2020/07/07 03:45:23;;;;;;;5.55;2.9;;;;;;;10.86;69.09375;95700.66;;;;
2020/07/07 03:46:25;;;;;;;5.55;2.9;;;;;;;10.86;69.09375;95700.66;;;;
2020/07/07 03:47:26;;;;;;;5.55;2.9;;;;;;;10.86;69.09375;95700.66;;;;
2020/07/07 03:48:28;;;;;;;5.55;2.9;;;;;;;10.86;69.09375;95700.66;;;;
2020/07/07 03:49:31;;;;;;;5.55;2.9;;;;;;;10.86;69.09375;95700.66;;;;
2020/07/07 03:50:31;;;;;;;5.55;2.9;;;;;;;10.86;69.09375;95700.66;;;;
2020/07/07 03:51:36;;;;;;;5.55;2.9;;;;;;;10.86;69.09375;95700.66;;;;
2020/07/07 03:52:39;;;;;;;5.55;2.9;;;;;;;10.86;69.09375;95700.66;;;;
2020/07/07 03:54:02;;;;;;;6.15;2.7;;;;;;;10.97;69.24023;95709.77;;;;
2020/07/07 03:55:05;;;;;;;6.15;2.7;;;;;;;10.97;69.24023;95709.77;;;;
2020/07/07 03:56:09;;;;;;;6.15;2.7;;;;;;;10.97;69.24023;95709.77;;;;
2020/07/07 03:57:15;;;;;;;6.15;2.7;;;;;;;10.97;69.24023;95709.77;;;;
2020/07/07 03:58:28;;;;;;;6.15;2.7;;;;;;;10.97;69.24023;95709.77;;;;
2020/07/07 03:59:30;;;;;;;6.15;2.7;;;;;;;10.97;69.24023;95709.77;;;;
2020/07/07 04:00:31;;;;;;;6.15;2.7;;;;;;;10.97;69.24023;95709.77;;;;
2020/07/07 04:01:32;;;;;;;6.15;2.7;;;;;;;10.97;69.24023;95709.77;;;;
2020/07/07 04:02:37;;;;;;;6.15;2.7;;;;;;;10.97;69.24023;95709.77;;;;
2020/07/07 04:03:57;;;;;;;6.15;2.7;;;;;;;10.97;69.24023;95709.77;;;;
2020/07/07 04:05:01;;;;;;;4.850001;2.65;;;;;;;11.13;69.41602;95720.87;;;;
2020/07/07 04:06:06;;;;;;;4.850001;2.65;;;;;;;11.13;69.41602;95720.87;;;;
2020/07/07 04:07:11;;;;;;;4.850001;2.65;;;;;;;11.13;69.41602;95720.87;;;;
2020/07/07 04:08:14;;;;;;;4.850001;2.65;;;;;;;11.13;69.41602;95720.87;;;;
2020/07/07 04:09:30;;;;;;;4.850001;2.65;;;;;;;11.13;69.41602;95720.87;;;;
2020/07/07 04:10:33;;;;;;;4.850001;2.65;;;;;;;11.13;69.41602;95720.87;;;;
2020/07/07 04:11:35;;;;;;;4.850001;2.65;;;;;;;11.13;69.41602;95720.87;;;;
2020/07/07 04:12:59;;;;;;;4.850001;2.65;;;;;;;11.13;69.41602;95720.87;;;;
2020/07/07 04:14:05;;;;;;;4.850001;2.65;;;;;;;11.13;69.41602;95720.87;;;;
2020/07/07 04:15:10;;;;;;;4.850001;2.65;;;;;;;11.13;69.41602;95720.87;;;;
2020/07/07 04:16:12;;;;;;;8.949999;2.85;;;;;;;11.25;69.27441;95716.75;;;;
2020/07/07 04:17:20;;;;;;;8.949999;2.85;;;;;;;11.25;69.27441;95716.75;;;;
2020/07/07 04:18:32;;;;;;;8.949999;2.85;;;;;;;11.25;69.27441;95716.75;;;;
2020/07/07 04:19:38;;;;;;;8.949999;2.85;;;;;;;11.25;69.27441;95716.75;;;;
2020/07/07 04:20:57;;;;;;;8.949999;2.85;;;;;;;11.25;69.27441;95716.75;;;;
2020/07/07 04:21:58;;;;;;;8.949999;2.85;;;;;;;11.25;69.27441;95716.75;;;;
2020/07/07 04:23:04;;;;;;;8.949999;2.85;;;;;;;11.25;69.27441;95716.75;;;;
2020/07/07 04:24:30;;;;;;;8.949999;2.85;;;;;;;11.25;69.27441;95716.75;;;;
2020/07/07 04:25:52;;;;;;;6.050001;2.95;;;;;;;11.52;69.02637;95722.6;;;;
2020/07/07 04:27:02;;;;;;;6.050001;2.95;;;;;;;11.52;69.02637;95722.6;;;;
2020/07/07 04:28:20;;;;;;;6.050001;2.95;;;;;;;11.52;69.02637;95722.6;;;;
2020/07/07 04:29:39;;;;;;;6.050001;2.95;;;;;;;11.52;69.02637;95722.6;;;;
2020/07/07 04:30:56;;;;;;;6.050001;2.95;;;;;;;11.52;69.02637;95722.6;;;;
2020/07/07 04:32:02;;;;;;;6.050001;2.95;;;;;;;11.52;69.02637;95722.6;;;;
2020/07/07 04:33:06;;;;;;;6.050001;2.95;;;;;;;11.52;69.02637;95722.6;;;;
2020/07/07 04:34:08;;;;;;;6.050001;2.95;;;;;;;11.52;69.02637;95722.6;;;;
2020/07/07 04:35:18;;;;;;;6.050001;2.95;;;;;;;11.52;69.02637;95722.6;;;;
2020/07/07 04:36:33;;;;;;;7.75;2.85;;;;;;;11.6;68.80371;95733.09;;;;
2020/07/07 04:37:48;;;;;;;7.75;2.85;;;;;;;11.6;68.80371;95733.09;;;;
2020/07/07 04:39:12;;;;;;;7.75;2.85;;;;;;;11.6;68.80371;95733.09;;;;
2020/07/07 04:40:13;;;;;;;7.75;2.85;;;;;;;11.6;68.80371;95733.09;;;;
2020/07/07 04:41:31;;;;;;;7.75;2.85;;;;;;;11.6;68.80371;95733.09;;;;
2020/07/07 04:42:47;;;;;;;7.75;2.85;;;;;;;11.6;68.80371;95733.09;;;;
2020/07/07 04:43:56;;;;;;;7.75;2.85;;;;;;;11.6;68.80371;95733.09;;;;
2020/07/07 04:45:04;;;;;;;7.75;2.85;;;;;;;11.6;68.80371;95733.09;;;;
2020/07/07 04:46:05;;;;;;;7.75;2.85;;;;;;;11.6;68.80371;95733.09;;;;
2020/07/07 04:47:08;;;;;;;0;0;;;;;;;0;0;0;;;;
2020/07/07 04:48:10;;;;;;;0;0;;;;;;;0;0;0;;;;
2020/07/07 04:49:14;;;;;;;0;0;;;;;;;0;0;0;;;;
2020/07/07 04:50:16;;;;;;;0;0;;;;;;;0;0;0;;;;
2020/07/07 04:51:18;;;;;;;0;0;;;;;;;0;0;0;;;;
2020/07/07 04:52:21;;;;;;;0;0;;;;;;;0;0;0;;;;
2020/07/07 04:53:22;;;;;;;0;0;;;;;;;0;0;0;;;;
2020/07/07 04:54:25;;;;;;;0;0;;;;;;;0;0;0;;;;
2020/07/07 04:55:27;;;;;;;0;0;;;;;;;0;0;0;;;;
2020/07/07 04:56:29;;;;;;;0;0;;;;;;;0;0;0;;;;
2020/07/07 04:57:44;;;;;;;0;0;;;;;;;0;0;0;;;;
2020/07/07 04:59:01;;;;;;;0;0;;;;;;;0;0;0;;;;
2020/07/07 05:00:16;;;;;;;0;0;;;;;;;0;0;0;;;;
2020/07/07 05:01:18;;;;;;;0;0;;;;;;;0;0;0;;;;
2020/07/07 05:02:18;;;;;;;0;0;;;;;;;0;0;0;;;;
2020/07/07 05:03:19;;;;;;;0;0;;;;;;;0;0;0;;;;
2020/07/07 05:04:22;;;;;;;0;0;;;;;;;0;0;0;;;;
2020/07/07 05:05:22;;;;;;;0;0;;;;;;;0;0;0;;;;
2020/07/07 05:06:23;;;;;;;0;0;;;;;;;0;0;0;;;;
2020/07/07 05:07:25;;;;;;;0;0;;;;;;;0;0;0;;;;
2020/07/07 05:08:32;;;;;;;0;0;;;;;;;0;0;0;;;;
2020/07/07 05:09:44;;;;;;;0;0;;;;;;;0;0;0;;;;
2020/07/07 05:11:01;;;;;;;0;0;;;;;;;0;0;0;;;;
2020/07/07 05:12:24;;;;;;;0;0;;;;;;;0;0;0;;;;
2020/07/07 05:13:26;;;;;;;0;0;;;;;;;0;0;0;;;;
2020/07/07 05:14:28;;;;;;;0;0;;;;;;;0;0;0;;;;
2020/07/07 05:15:29;;;;;;;0;0;;;;;;;0;0;0;;;;
2020/07/07 05:16:32;;;;;;;0;0;;;;;;;0;0;0;;;;
2020/07/07 05:17:56;;;;;;;7.5;3.05;;;;;;;12.17;66.88184;95721.15;;;;
2020/07/07 05:19:06;;;;;;;7.5;3.05;;;;;;;12.17;66.88184;95721.15;;;;
2020/07/07 05:20:18;;;;;;;7.5;3.05;;;;;;;12.17;66.88184;95721.15;;;;
2020/07/07 05:21:32;;;;;;;7.5;3.05;;;;;;;12.17;66.88184;95721.15;;;;
2020/07/07 05:22:39;;;;;;;7.5;3.05;;;;;;;12.17;66.88184;95721.15;;;;
2020/07/07 05:23:53;;;;;;;7.5;3.05;;;;;;;12.17;66.88184;95721.15;;;;
2020/07/07 05:24:55;;;;;;;7.5;3.05;;;;;;;12.17;66.88184;95721.15;;;;
2020/07/07 05:25:56;;;;;;;7.5;3.05;;;;;;;12.17;66.88184;95721.15;;;;
2020/07/07 05:26:56;;;;;;;7.5;3.05;;;;;;;12.17;66.88184;95721.15;;;;
2020/07/07 05:27:57;;;;;;;5.7;2.7;;;;;;;12.44;67.10449;95713.78;;;;
2020/07/07 05:28:57;;;;;;;5.7;2.7;;;;;;;12.44;67.10449;95713.78;;;;
2020/07/07 05:29:58;;;;;;;5.7;2.7;;;;;;;12.44;67.10449;95713.78;;;;
2020/07/07 05:30:59;;;;;;;5.7;2.7;;;;;;;12.44;67.10449;95713.78;;;;
2020/07/07 05:31:59;;;;;;;5.7;2.7;;;;;;;12.44;67.10449;95713.78;;;;
2020/07/07 05:33:00;;;;;;;5.7;2.7;;;;;;;12.44;67.10449;95713.78;;;;
2020/07/07 05:34:01;;;;;;;5.7;2.7;;;;;;;12.44;67.10449;95713.78;;;;
2020/07/07 05:35:02;;;;;;;5.7;2.7;;;;;;;12.44;67.10449;95713.78;;;;
2020/07/07 05:36:04;;;;;;;5.7;2.7;;;;;;;12.44;67.10449;95713.78;;;;
2020/07/07 05:37:05;;;;;;;5.7;2.7;;;;;;;12.44;67.10449;95713.78;;;;
2020/07/07 05:38:06;;;;;;;5.7;2.7;;;;;;;12.44;67.10449;95713.78;;;;
2020/07/07 05:39:06;;;;;;;8.450001;2.95;;;;;;;12.66;66.70801;95722.02;;;;
2020/07/07 05:40:07;;;;;;;8.450001;2.95;;;;;;;12.66;66.70801;95722.02;;;;
2020/07/07 05:41:08;;;;;;;8.450001;2.95;;;;;;;12.66;66.70801;95722.02;;;;
2020/07/07 05:42:08;;;;;;;8.450001;2.95;;;;;;;12.66;66.70801;95722.02;;;;
2020/07/07 05:43:09;;;;;;;8.450001;2.95;;;;;;;12.66;66.70801;95722.02;;;;
2020/07/07 05:44:09;;;;;;;8.450001;2.95;;;;;;;12.66;66.70801;95722.02;;;;
2020/07/07 05:45:10;;;;;;;8.450001;2.95;;;;;;;12.66;66.70801;95722.02;;;;
2020/07/07 05:46:10;;;;;;;8.450001;2.95;;;;;;;12.66;66.70801;95722.02;;;;
2020/07/07 05:47:11;;;;;;;8.450001;2.95;;;;;;;12.66;66.70801;95722.02;;;;
2020/07/07 05:48:13;;;;;;;0;0;;;;;;;0;0;0;;;;
2020/07/07 05:49:13;;;;;;;0;0;;;;;;;0;0;0;;;;
2020/07/07 05:50:13;;;;;;;0;0;;;;;;;0;0;0;;;;
2020/07/07 05:51:14;;;;;;;0;0;;;;;;;0;0;0;;;;
2020/07/07 05:52:15;;;;;;;0;0;;;;;;;0;0;0;;;;
2020/07/07 05:53:15;;;;;;;0;0;;;;;;;0;0;0;;;;
2020/07/07 05:54:16;;;;;;;0;0;;;;;;;0;0;0;;;;
2020/07/07 05:55:16;;;;;;;0;0;;;;;;;0;0;0;;;;
2020/07/07 05:56:17;;;;;;;0;0;;;;;;;0;0;0;;;;
2020/07/07 05:57:17;;;;;;;0;0;;;;;;;0;0;0;;;;
2020/07/07 05:58:18;;;;;;;0;0;;;;;;;0;0;0;;;;
2020/07/07 05:59:19;;;;;;;0;0;;;;;;;0;0;0;;;;
2020/07/07 06:00:19;;;;;;;0;0;;;;;;;0;0;0;;;;
2020/07/07 06:01:20;;;;;;;0;0;;;;;;;0;0;0;;;;
2020/07/07 06:02:20;;;;;;;0;0;;;;;;;0;0;0;;;;
2020/07/07 06:03:21;;;;;;;0;0;;;;;;;0;0;0;;;;
2020/07/07 06:04:21;;;;;;;0;0;;;;;;;0;0;0;;;;
2020/07/07 06:05:22;;;;;;;0;0;;;;;;;0;0;0;;;;
2020/07/07 06:06:22;;;;;;;0;0;;;;;;;0;0;0;;;;
2020/07/07 06:07:23;;;;;;;0;0;;;;;;;0;0;0;;;;
2020/07/07 06:08:23;;;;;;;0;0;;;;;;;0;0;0;;;;
2020/07/07 06:09:24;;;;;;;0;0;;;;;;;0;0;0;;;;
2020/07/07 06:10:25;;;;;;;0;0;;;;;;;0;0;0;;;;
2020/07/07 06:11:25;;;;;;;0;0;;;;;;;0;0;0;;;;
2020/07/07 06:12:26;;;;;;;0;0;;;;;;;0;0;0;;;;
2020/07/07 06:13:26;;;;;;;0;0;;;;;;;0;0;0;;;;
2020/07/07 06:14:27;;;;;;;0;0;;;;;;;0;0;0;;;;
2020/07/07 06:15:29;;;;;;;0;0;;;;;;;0;0;0;;;;
2020/07/07 06:16:30;;;;;;;0;0;;;;;;;0;0;0;;;;
2020/07/07 06:17:35;;;;;;;0;0;;;;;;;0;0;0;;;;
2020/07/07 06:18:37;;;;;;;0;0;;;;;;;0;0;0;;;;
2020/07/07 06:19:38;;;;;;;4.35;1.9;;;;;;;13.71;65.03027;95699.83;;;;
2020/07/07 06:20:40;;;;;;;4.35;1.9;;;;;;;13.71;65.03027;95699.83;;;;
2020/07/07 06:21:42;;;;;;;4.35;1.9;;;;;;;13.71;65.03027;95699.83;;;;
2020/07/07 06:22:43;;;;;;;4.35;1.9;;;;;;;13.71;65.03027;95699.83;;;;
2020/07/07 06:23:48;;;;;;;4.35;1.9;;;;;;;13.71;65.03027;95699.83;;;;
2020/07/07 06:24:49;;;;;;;4.35;1.9;;;;;;;13.71;65.03027;95699.83;;;;
2020/07/07 06:25:51;;;;;;;4.35;1.9;;;;;;;13.71;65.03027;95699.83;;;;
2020/07/07 06:26:52;;;;;;;4.35;1.9;;;;;;;13.71;65.03027;95699.83;;;;
2020/07/07 06:27:53;;;;;;;4.35;1.9;;;;;;;13.71;65.03027;95699.83;;;;
2020/07/07 06:28:54;;;;;;;4.35;1.9;;;;;;;13.71;65.03027;95699.83;;;;